createdAt,value
2023-04-04T00:00:43.961Z,41.22
2023-04-04T00:03:11.813Z,41.06
2023-04-04T00:05:40.067Z,40.88
2023-04-04T00:08:07.811Z,41.55
2023-04-04T00:10:35.473Z,41.29
2023-04-04T00:13:05.826Z,40.73
2023-04-04T00:15:34.619Z,40.66
2023-04-04T00:18:02.532Z,40.60
2023-04-04T00:20:30.741Z,41.45
2023-04-04T00:22:58.932Z,40.66
2023-04-04T00:25:26.604Z,41.03
2023-04-04T00:27:54.601Z,41.40
2023-04-04T00:30:24.854Z,41.36
2023-04-04T00:32:52.793Z,41.66
2023-04-04T00:35:21.031Z,41.02
2023-04-04T00:37:48.712Z,41.40
2023-04-04T00:40:16.427Z,41.01
2023-04-04T00:42:44.349Z,40.78
2023-04-04T00:45:12.550Z,40.88
2023-04-04T00:47:45.231Z,41.79
2023-04-04T00:50:12.969Z,41.27
2023-04-04T00:52:41.030Z,41.14
2023-04-04T00:55:10.358Z,41.63
2023-04-04T00:57:38.099Z,41.94
2023-04-04T01:00:07.662Z,41.71
2023-04-04T01:02:37.119Z,41.48
2023-04-04T01:05:07.439Z,41.96
2023-04-04T01:07:37.243Z,42.13
2023-04-04T01:10:06.450Z,42.31
2023-04-04T01:12:35.058Z,41.83
2023-04-04T01:15:02.955Z,41.93
2023-04-04T01:17:31.248Z,42.25
2023-04-04T01:20:03.928Z,41.76
2023-04-04T01:22:34.681Z,42.33
2023-04-04T01:25:03.123Z,42.10
2023-04-04T01:27:32.162Z,42.63
2023-04-04T01:30:00.250Z,42.64
2023-04-04T01:32:33.312Z,41.92
2023-04-04T01:35:14.955Z,42.13
2023-04-04T01:37:50.406Z,42.22
2023-04-04T01:40:22.127Z,42.56
2023-04-04T01:42:52.912Z,42.27
2023-04-04T01:45:23.255Z,42.43
2023-04-04T01:47:51.020Z,42.80
2023-04-04T01:50:18.792Z,42.37
2023-04-04T01:52:47.318Z,42.43
2023-04-04T01:55:15.139Z,42.58
2023-04-04T01:57:42.907Z,43.01
2023-04-04T02:00:13.641Z,42.14
2023-04-04T02:02:41.370Z,43.29
2023-04-04T02:05:09.640Z,43.54
2023-04-04T02:07:37.749Z,42.92
2023-04-04T02:10:06.315Z,42.94
2023-04-04T02:12:34.213Z,43.31
2023-04-04T02:15:02.196Z,43.25
2023-04-04T02:17:31.284Z,43.00
2023-04-04T02:19:58.972Z,43.70
2023-04-04T02:22:26.917Z,43.46
2023-04-04T02:24:54.768Z,43.50
2023-04-04T02:27:22.415Z,43.40
2023-04-04T02:29:50.430Z,44.33
2023-04-04T02:32:18.353Z,44.78
2023-04-04T02:34:47.606Z,44.29
2023-04-04T02:37:15.449Z,44.77
2023-04-04T02:39:43.105Z,44.87
2023-04-04T02:42:10.747Z,44.28
2023-04-04T02:44:38.680Z,44.86
2023-04-04T02:47:07.286Z,44.61
2023-04-04T02:49:35.765Z,44.75
2023-04-04T02:52:05.096Z,45.64
2023-04-04T02:54:33.052Z,45.08
2023-04-04T02:57:00.901Z,45.80
2023-04-04T02:59:29.306Z,45.78
2023-04-04T03:01:57.038Z,45.06
2023-04-04T03:04:24.932Z,46.30
2023-04-04T03:06:52.884Z,45.40
2023-04-04T03:09:21.948Z,46.26
2023-04-04T03:11:51.501Z,46.36
2023-04-04T03:14:19.403Z,45.86
2023-04-04T03:16:49.838Z,45.61
2023-04-04T03:19:17.594Z,45.74
2023-04-04T03:21:45.771Z,46.49
2023-04-04T03:24:13.796Z,46.28
2023-04-04T03:26:43.097Z,45.82
2023-04-04T03:29:11.285Z,46.59
2023-04-04T03:31:38.999Z,46.40
2023-04-04T03:34:06.708Z,46.54
2023-04-04T03:36:34.760Z,46.01
2023-04-04T03:39:02.865Z,46.81
2023-04-04T03:41:30.546Z,46.52
2023-04-04T03:43:59.924Z,47.31
2023-04-04T03:46:27.703Z,47.02
2023-04-04T03:48:55.571Z,46.27
2023-04-04T03:51:26.584Z,46.35
2023-04-04T03:53:54.540Z,46.24
2023-04-04T03:56:22.220Z,45.97
2023-04-04T03:58:50.273Z,46.59
2023-04-04T04:01:19.298Z,46.28
2023-04-04T04:03:47.023Z,47.37
2023-04-04T04:06:15.095Z,46.92
2023-04-04T04:08:42.789Z,47.02
2023-04-04T04:11:10.483Z,47.46
2023-04-04T04:13:39.260Z,46.99
2023-04-04T04:16:07.624Z,46.66
2023-04-04T04:18:37.369Z,46.66
2023-04-04T04:21:05.485Z,46.66
2023-04-04T04:23:33.321Z,47.16
2023-04-04T04:26:00.966Z,48.04
2023-04-04T04:28:33.539Z,47.43
2023-04-04T04:31:05.688Z,47.76
2023-04-04T04:33:33.764Z,47.20
2023-04-04T04:36:04.728Z,47.87
2023-04-04T04:38:32.507Z,47.17
2023-04-04T04:41:00.609Z,47.78
2023-04-04T04:43:28.444Z,47.47
2023-04-04T04:45:56.632Z,47.68
2023-04-04T04:48:24.881Z,46.66
2023-04-04T04:50:52.545Z,46.58
2023-04-04T04:53:21.633Z,47.38
2023-04-04T04:55:51.475Z,46.51
2023-04-04T04:58:21.192Z,46.99
2023-04-04T05:00:48.706Z,46.41
2023-04-04T05:03:16.892Z,47.14
2023-04-04T05:05:44.734Z,46.67
2023-04-04T05:08:12.409Z,47.13
2023-04-04T05:10:42.011Z,47.43
2023-04-04T05:13:10.608Z,47.03
2023-04-04T05:15:38.705Z,46.77
2023-04-04T05:18:06.812Z,47.64
2023-04-04T05:20:34.483Z,46.89
2023-04-04T05:23:02.171Z,47.39
2023-04-04T05:25:30.253Z,47.60
2023-04-04T05:27:59.280Z,47.77
2023-04-04T05:30:26.960Z,46.90
2023-04-04T05:32:55.846Z,47.52
2023-04-04T05:35:23.671Z,47.86
2023-04-04T05:37:51.360Z,48.15
2023-04-04T05:40:19.564Z,47.56
2023-04-04T05:42:55.266Z,47.95
2023-04-04T05:45:24.581Z,47.19
2023-04-04T05:47:52.534Z,47.64
2023-04-04T05:50:20.300Z,46.98
2023-04-04T05:52:48.378Z,47.31
2023-04-04T05:55:16.784Z,47.54
2023-04-04T05:57:49.719Z,46.64
2023-04-04T06:00:19.428Z,47.17
2023-04-04T06:02:48.637Z,46.24
2023-04-04T06:05:17.094Z,46.52
2023-04-04T06:07:44.756Z,45.99
2023-04-04T06:10:12.560Z,46.22
2023-04-04T06:12:40.667Z,46.59
2023-04-04T06:15:09.267Z,45.63
2023-04-04T06:17:37.100Z,45.97
2023-04-04T06:20:08.728Z,45.25
2023-04-04T06:22:36.421Z,45.43
2023-04-04T06:25:04.408Z,45.21
2023-04-04T06:27:32.444Z,45.43
2023-04-04T06:30:00.280Z,45.03
2023-04-04T06:32:28.040Z,45.58
2023-04-04T06:34:56.228Z,45.56
2023-04-04T06:37:25.397Z,44.32
2023-04-04T06:39:53.703Z,45.13
2023-04-04T06:42:21.765Z,45.13
2023-04-04T06:44:49.407Z,44.69
2023-04-04T06:47:17.064Z,44.26
2023-04-04T06:49:45.051Z,44.06
2023-04-04T06:52:12.948Z,44.10
2023-04-04T06:54:42.109Z,44.88
2023-04-04T06:57:10.221Z,44.01
2023-04-04T06:59:38.300Z,44.33
2023-04-04T07:02:05.999Z,44.24
2023-04-04T07:04:35.594Z,43.69
2023-04-04T07:07:03.622Z,43.70
2023-04-04T07:09:31.428Z,44.23
2023-04-04T07:12:01.330Z,43.20
2023-04-04T07:14:29.112Z,43.82
2023-04-04T07:16:58.270Z,43.24
2023-04-04T07:19:29.137Z,42.33
2023-04-04T07:21:57.462Z,42.73
2023-04-04T07:24:25.130Z,42.59
2023-04-04T07:26:53.274Z,41.35
2023-04-04T07:29:22.454Z,41.42
2023-04-04T07:31:50.165Z,41.29
2023-04-04T07:34:18.682Z,41.54
2023-04-04T07:36:46.701Z,40.92
2023-04-04T07:39:14.379Z,40.39
2023-04-04T07:41:42.755Z,41.13
2023-04-04T07:44:10.709Z,40.18
2023-04-04T07:46:40.609Z,40.65
2023-04-04T07:51:56.959Z,40.05
2023-04-04T07:54:25.360Z,39.71
2023-04-04T07:56:54.110Z,39.35
2023-04-04T07:59:21.993Z,39.48
2023-04-04T08:01:51.708Z,39.00
2023-04-04T08:04:19.616Z,40.50
2023-04-04T08:06:47.494Z,38.22
2023-04-04T08:09:15.707Z,38.82
2023-04-04T08:11:43.723Z,38.31
2023-04-04T08:14:11.976Z,38.20
2023-04-04T08:16:40.200Z,37.40
2023-04-04T08:19:09.804Z,37.16
2023-04-04T08:21:37.329Z,39.04
2023-04-04T08:24:05.577Z,37.83
2023-04-04T08:26:33.243Z,36.55
2023-04-04T08:29:01.482Z,36.53
2023-04-04T08:31:30.196Z,35.82
2023-04-04T08:33:57.907Z,35.04
2023-04-04T08:36:26.968Z,35.77
2023-04-04T08:38:55.073Z,35.91
2023-04-04T08:41:22.955Z,36.69
2023-04-04T08:43:54.490Z,35.55
2023-04-04T08:46:23.406Z,36.17
2023-04-04T08:48:53.085Z,35.95
2023-04-04T08:51:21.467Z,34.81
2023-04-04T08:53:51.627Z,35.81
2023-04-04T08:56:19.587Z,36.05
2023-04-04T08:58:47.490Z,36.13
2023-04-04T09:01:16.977Z,35.83
2023-04-04T09:03:45.393Z,36.20
2023-04-04T09:06:14.729Z,35.85
2023-04-04T09:08:44.318Z,33.61
2023-04-04T09:11:14.673Z,33.69
2023-04-04T09:13:46.374Z,35.36
2023-04-04T09:16:14.137Z,35.43
2023-04-04T09:18:41.992Z,34.21
2023-04-04T09:21:14.141Z,35.13
2023-04-04T09:23:41.836Z,35.42
2023-04-04T09:26:09.510Z,35.19
2023-04-04T09:28:39.204Z,34.21
2023-04-04T09:31:09.900Z,34.29
2023-04-04T09:33:40.309Z,35.47
2023-04-04T09:36:10.389Z,35.08
2023-04-04T09:38:40.874Z,35.15
2023-04-04T09:41:09.704Z,35.07
2023-04-04T09:43:41.437Z,35.74
2023-04-04T09:46:09.236Z,35.62
2023-04-04T09:48:37.563Z,35.03
2023-04-04T09:51:07.245Z,34.68
2023-04-04T09:53:39.810Z,33.52
2023-04-04T09:56:08.811Z,34.89
2023-04-04T09:58:39.116Z,33.63
2023-04-04T10:01:14.430Z,33.19
2023-04-04T10:03:42.196Z,34.75
2023-04-04T10:06:11.211Z,34.17
2023-04-04T10:08:43.624Z,35.19
2023-04-04T10:11:12.679Z,33.88
2023-04-04T10:13:42.281Z,34.87
2023-04-04T10:16:12.409Z,34.86
2023-04-04T10:18:41.748Z,34.73
2023-04-04T10:23:43.341Z,34.73
2023-04-04T10:26:12.585Z,35.02
2023-04-04T10:28:40.551Z,35.15
2023-04-04T10:31:16.700Z,33.13
2023-04-04T10:33:53.510Z,33.80
2023-04-04T10:36:24.605Z,34.42
2023-04-04T10:39:04.791Z,34.01
2023-04-04T10:41:34.082Z,34.33
2023-04-04T10:44:10.623Z,34.47
2023-04-04T10:46:43.106Z,34.27
2023-04-04T10:49:13.115Z,33.71
2023-04-04T10:51:53.045Z,33.59
2023-04-04T10:54:23.950Z,33.29
2023-04-04T10:56:52.323Z,33.43
2023-04-04T10:59:20.131Z,34.36
2023-04-04T11:01:50.276Z,33.79
2023-04-04T11:04:21.405Z,33.53
2023-04-04T11:07:12.710Z,33.91
2023-04-04T11:09:51.365Z,33.04
2023-04-04T11:12:24.277Z,34.04
2023-04-04T11:15:10.785Z,33.58
2023-04-04T11:18:05.987Z,31.84
2023-04-04T11:20:45.553Z,32.35
2023-04-04T11:23:20.074Z,33.22
2023-04-04T11:25:54.955Z,33.27
2023-04-04T11:28:46.712Z,33.04
2023-04-04T11:31:29.556Z,33.76
2023-04-04T11:34:04.462Z,33.58
2023-04-04T11:36:53.381Z,33.79
2023-04-04T11:39:28.904Z,33.58
2023-04-04T11:42:03.435Z,33.33
2023-04-04T11:44:33.970Z,34.04
2023-04-04T11:47:05.251Z,33.56
2023-04-04T11:49:37.925Z,31.34
2023-04-04T11:52:10.021Z,32.69
2023-04-04T11:54:39.451Z,32.51
2023-04-04T11:57:08.166Z,32.89
2023-04-04T11:59:41.641Z,33.33
2023-04-04T12:02:11.154Z,33.84
2023-04-04T12:04:42.819Z,33.82
2023-04-04T12:07:15.540Z,33.34
2023-04-04T12:09:43.593Z,33.01
2023-04-04T12:12:14.293Z,32.53
2023-04-04T12:14:42.500Z,31.68
2023-04-04T12:17:10.285Z,33.13
2023-04-04T12:19:39.616Z,31.96
2023-04-04T12:22:08.771Z,32.61
2023-04-04T12:24:37.936Z,32.64
2023-04-04T12:27:07.093Z,32.70
2023-04-04T12:29:37.748Z,32.29
2023-04-04T12:32:07.533Z,32.71
2023-04-04T12:34:36.111Z,32.20
2023-04-04T12:37:04.321Z,31.75
2023-04-04T12:39:32.212Z,32.21
2023-04-04T12:42:03.500Z,31.75
2023-04-04T12:44:32.625Z,31.81
2023-04-04T12:47:01.587Z,31.09
2023-04-04T12:49:31.159Z,31.45
2023-04-04T12:52:03.964Z,31.44
2023-04-04T12:54:34.024Z,31.11
2023-04-04T12:57:05.857Z,31.70
2023-04-04T12:59:34.988Z,31.80
2023-04-04T13:02:03.226Z,31.90
2023-04-04T13:04:31.379Z,31.74
2023-04-04T13:07:00.421Z,32.07
2023-04-04T13:09:28.427Z,31.63
2023-04-04T13:12:02.147Z,31.22
2023-04-04T13:14:57.569Z,30.81
2023-04-04T13:17:25.735Z,30.98
2023-04-04T13:19:53.517Z,30.18
2023-04-04T13:22:21.188Z,30.62
2023-04-04T13:24:49.119Z,30.37
2023-04-04T13:27:16.796Z,30.95
2023-04-04T13:29:46.221Z,31.58
2023-04-04T13:32:14.169Z,30.75
2023-04-04T13:34:41.812Z,30.81
2023-04-04T13:37:09.561Z,30.75
2023-04-04T13:39:38.075Z,30.36
2023-04-04T13:42:05.823Z,31.06
2023-04-04T13:44:33.488Z,30.58
2023-04-04T13:47:03.762Z,30.52
2023-04-04T13:49:31.483Z,30.54
2023-04-04T13:52:00.151Z,30.44
2023-04-04T13:54:29.786Z,29.43
2023-04-04T13:56:59.337Z,30.48
2023-04-04T13:59:30.343Z,29.87
2023-04-04T14:01:58.260Z,29.57
2023-04-04T14:04:27.414Z,29.74
2023-04-04T14:06:55.607Z,30.17
2023-04-04T14:09:24.163Z,30.60
2023-04-04T14:11:51.851Z,30.72
2023-04-04T14:14:20.020Z,30.35
2023-04-04T14:16:47.705Z,30.59
2023-04-04T14:19:15.517Z,30.93
2023-04-04T14:21:45.110Z,30.40
2023-04-04T14:24:12.798Z,30.25
2023-04-04T14:26:40.487Z,30.17
2023-04-04T14:29:10.370Z,29.77
2023-04-04T14:31:38.145Z,30.68
2023-04-04T14:34:06.146Z,30.27
2023-04-04T14:36:34.589Z,29.95
2023-04-04T14:39:03.651Z,29.66
2023-04-04T14:41:31.415Z,29.48
2023-04-04T14:43:59.646Z,29.80
2023-04-04T14:46:27.378Z,29.98
2023-04-04T14:48:55.160Z,30.05
2023-04-04T14:51:23.482Z,30.25
2023-04-04T14:53:52.417Z,30.81
2023-04-04T14:56:23.396Z,30.84
2023-04-04T14:58:52.038Z,30.36
2023-04-04T15:01:21.403Z,30.52
2023-04-04T15:03:49.127Z,30.58
2023-04-04T15:06:17.538Z,31.01
2023-04-04T15:08:45.193Z,30.84
2023-04-04T15:11:13.204Z,30.64
2023-04-04T15:13:42.754Z,30.44
2023-04-04T15:16:10.712Z,30.46
2023-04-04T15:18:38.431Z,30.36
2023-04-04T15:21:07.301Z,30.40
2023-04-04T15:23:34.976Z,30.47
2023-04-04T15:26:02.935Z,30.75
2023-04-04T15:28:31.212Z,30.64
2023-04-04T15:31:03.335Z,30.72
2023-04-04T15:33:31.784Z,30.80
2023-04-04T15:35:59.448Z,30.84
2023-04-04T15:38:27.112Z,31.56
2023-04-04T15:40:55.251Z,30.73
2023-04-04T15:43:23.973Z,30.83
2023-04-04T15:45:51.681Z,30.85
2023-04-04T15:48:21.228Z,30.45
2023-04-04T15:50:48.959Z,30.92
2023-04-04T15:53:17.729Z,30.47
2023-04-04T15:55:46.089Z,30.28
2023-04-04T15:58:14.050Z,30.54
2023-04-04T16:03:36.541Z,30.66
2023-04-04T16:06:06.878Z,30.99
2023-04-04T16:08:34.542Z,31.00
2023-04-04T16:11:03.255Z,30.98
2023-04-04T16:13:31.699Z,30.92
2023-04-04T16:15:59.503Z,31.07
2023-04-04T16:18:27.312Z,30.60
2023-04-04T16:20:56.989Z,30.38
2023-04-04T16:23:24.485Z,31.09
2023-04-04T16:25:52.325Z,29.87
2023-04-04T16:28:20.573Z,30.53
2023-04-04T16:30:48.247Z,29.79
2023-04-04T16:33:16.137Z,30.61
2023-04-04T16:35:44.565Z,29.68
2023-04-04T16:38:13.633Z,30.22
2023-04-04T16:40:43.022Z,29.92
2023-04-04T16:43:11.518Z,29.91
2023-04-04T16:45:39.184Z,30.67
2023-04-04T16:48:07.062Z,30.65
2023-04-04T16:50:35.369Z,30.55
2023-04-04T16:53:04.005Z,30.79
2023-04-04T16:55:33.041Z,30.88
2023-04-04T16:58:01.302Z,30.86
2023-04-04T17:00:29.417Z,30.86
2023-04-04T17:02:58.187Z,31.46
2023-04-04T17:05:26.577Z,30.95
2023-04-04T17:07:54.244Z,30.67
2023-04-04T17:10:22.151Z,31.00
2023-04-04T17:12:51.433Z,30.81
2023-04-04T17:15:19.136Z,31.11
2023-04-04T17:17:47.019Z,31.29
2023-04-04T17:20:18.424Z,31.31
2023-04-04T17:22:46.280Z,30.77
2023-04-04T17:25:14.138Z,31.21
2023-04-04T17:27:42.360Z,31.10
2023-04-04T17:30:13.219Z,30.89
2023-04-04T17:32:41.235Z,31.01
2023-04-04T17:35:09.747Z,30.74
2023-04-04T17:37:37.433Z,31.13
2023-04-04T17:40:05.852Z,30.97
2023-04-04T17:42:34.047Z,30.80
2023-04-04T17:45:01.820Z,31.38
2023-04-04T17:47:31.124Z,31.23
2023-04-04T17:49:59.389Z,31.00
2023-04-04T17:52:27.107Z,31.20
2023-04-04T17:54:55.044Z,30.86
2023-04-04T17:57:23.228Z,30.94
2023-04-04T17:59:51.193Z,30.97
2023-04-04T18:02:19.471Z,31.30
2023-04-04T18:04:49.014Z,30.63
2023-04-04T18:07:16.941Z,30.69
2023-04-04T18:09:44.618Z,31.23
2023-04-04T18:12:13.414Z,30.78
2023-04-04T18:14:41.200Z,30.91
2023-04-04T18:17:08.932Z,30.74
2023-04-04T18:19:38.951Z,30.87
2023-04-04T18:22:09.323Z,30.58
2023-04-04T18:24:37.971Z,31.52
2023-04-04T18:27:06.085Z,31.45
2023-04-04T18:29:33.763Z,31.32
2023-04-04T18:32:03.088Z,31.77
2023-04-04T18:34:30.992Z,31.82
2023-04-04T18:36:58.712Z,31.40
2023-04-04T18:39:28.495Z,31.84
2023-04-04T18:41:56.670Z,31.55
2023-04-04T18:44:24.423Z,31.64
2023-04-04T18:46:52.635Z,32.38
2023-04-04T18:49:20.336Z,32.79
2023-04-04T18:51:48.340Z,32.92
2023-04-04T18:54:16.764Z,33.13
2023-04-04T18:56:45.826Z,33.05
2023-04-04T18:59:13.783Z,33.12
2023-04-04T19:01:42.214Z,33.67
2023-04-04T19:04:11.462Z,34.01
2023-04-04T19:06:41.398Z,34.56
2023-04-04T19:09:11.520Z,34.23
2023-04-04T19:11:39.572Z,34.74
2023-04-04T19:14:09.405Z,34.96
2023-04-04T19:16:37.798Z,34.79
2023-04-04T19:19:05.861Z,34.69
2023-04-04T19:21:33.562Z,35.06
2023-04-04T19:24:01.950Z,34.89
2023-04-04T19:26:29.613Z,35.44
2023-04-04T19:28:57.308Z,35.60
2023-04-04T19:31:30.404Z,35.66
2023-04-04T19:33:58.234Z,35.73
2023-04-04T19:36:26.251Z,36.23
2023-04-04T19:38:55.244Z,35.96
2023-04-04T19:41:34.409Z,35.79
2023-04-04T19:44:02.679Z,35.99
2023-04-04T19:46:33.851Z,36.51
2023-04-04T19:49:03.452Z,36.72
2023-04-04T19:51:40.090Z,36.23
2023-04-04T19:54:12.486Z,36.56
2023-04-04T19:56:40.165Z,37.03
2023-04-04T19:59:10.550Z,37.11
2023-04-04T20:01:47.299Z,36.28
2023-04-04T20:04:21.663Z,36.72
2023-04-04T20:06:49.885Z,36.85
2023-04-04T20:09:34.810Z,36.24
2023-04-04T20:12:03.016Z,36.74
2023-04-04T20:14:30.883Z,36.88
2023-04-04T20:16:59.935Z,36.86
2023-04-04T20:19:30.107Z,36.59
2023-04-04T20:21:57.843Z,36.37
2023-04-04T20:24:25.823Z,36.19
2023-04-04T20:26:59.296Z,36.39
2023-04-04T20:29:28.630Z,36.94
2023-04-04T20:31:57.582Z,37.24
2023-04-04T20:34:33.218Z,37.10
2023-04-04T20:37:02.868Z,37.60
2023-04-04T20:39:38.295Z,36.41
2023-04-04T20:42:17.658Z,37.27
2023-04-04T20:44:45.550Z,37.36
2023-04-04T20:47:38.336Z,36.96
2023-04-04T20:50:41.630Z,36.82
2023-04-04T20:53:18.263Z,37.21
2023-04-04T20:55:46.242Z,37.98
2023-04-04T20:58:26.126Z,37.79
2023-04-04T21:00:54.133Z,37.93
2023-04-04T21:03:31.051Z,37.91
2023-04-04T21:06:02.599Z,38.24
2023-04-04T21:08:48.244Z,37.95
2023-04-04T21:11:24.313Z,38.31
2023-04-04T21:13:52.122Z,39.39
2023-04-04T21:16:23.680Z,39.42
2023-04-04T21:18:57.751Z,39.50
2023-04-04T21:21:26.549Z,39.27
2023-04-04T21:23:57.784Z,40.07
2023-04-04T21:26:31.218Z,39.59
2023-04-04T21:29:01.060Z,40.26
2023-04-04T21:31:35.465Z,39.83
2023-04-04T21:34:09.777Z,40.09
2023-04-04T21:36:37.770Z,40.03
2023-04-04T21:39:12.094Z,39.90
2023-04-04T21:41:40.486Z,39.95
2023-04-04T21:44:09.616Z,39.82
2023-04-04T21:46:39.773Z,40.13
2023-04-04T21:49:08.941Z,39.42
2023-04-04T21:51:37.371Z,39.65
2023-04-04T21:54:06.114Z,40.50
2023-04-04T21:56:35.404Z,40.53
2023-04-04T21:59:04.637Z,40.24
2023-04-04T22:01:33.346Z,40.37
2023-04-04T22:04:01.069Z,40.78
2023-04-04T22:06:30.708Z,40.43
2023-04-04T22:08:59.445Z,39.13
2023-04-04T22:11:28.623Z,40.89
2023-04-04T22:14:07.842Z,40.47
2023-04-04T22:16:39.812Z,41.05
2023-04-04T22:19:11.940Z,41.37
2023-04-04T22:21:47.656Z,41.80
2023-04-04T22:24:18.840Z,41.10
2023-04-04T22:26:47.660Z,42.09
2023-04-04T22:29:16.725Z,41.37
2023-04-04T22:31:44.983Z,41.57
2023-04-04T22:34:15.186Z,42.85
2023-04-04T22:36:43.756Z,42.09
2023-04-04T22:39:12.536Z,41.43
2023-04-04T22:41:40.237Z,41.07
2023-04-04T22:44:07.938Z,41.59
2023-04-04T22:46:37.521Z,41.74
2023-04-04T22:49:08.804Z,41.76
2023-04-04T22:51:44.117Z,41.70
2023-04-04T22:54:14.234Z,41.41
2023-04-04T22:56:42.243Z,41.89
2023-04-04T22:59:10.540Z,41.53
2023-04-04T23:01:39.975Z,42.24
2023-04-04T23:04:07.963Z,42.45
2023-04-04T23:06:36.724Z,42.34
2023-04-04T23:09:04.493Z,42.72
2023-04-04T23:11:32.237Z,42.49
2023-04-04T23:14:00.929Z,43.01
2023-04-04T23:16:28.824Z,43.46
2023-04-04T23:18:58.093Z,43.04
2023-04-04T23:21:26.590Z,43.21
2023-04-04T23:23:54.252Z,43.11
2023-04-04T23:26:21.926Z,43.60
2023-04-04T23:28:50.340Z,44.04
2023-04-04T23:31:18.232Z,43.36
2023-04-04T23:33:46.158Z,43.48
2023-04-04T23:36:16.141Z,43.86
2023-04-04T23:38:43.823Z,43.79
2023-04-04T23:41:12.461Z,43.53
2023-04-04T23:43:43.228Z,43.34
2023-04-04T23:46:14.437Z,44.20
2023-04-04T23:48:42.405Z,44.16
2023-04-04T23:51:11.578Z,43.73
2023-04-04T23:53:40.807Z,44.13
2023-04-04T23:56:09.004Z,44.52
2023-04-04T23:58:38.574Z,44.06
